createdAt,value
2023-02-24T00:01:28.547Z,6.07
2023-02-24T00:03:57.012Z,7.10
2023-02-24T00:06:24.521Z,7.78
2023-02-24T00:08:51.175Z,9.82
2023-02-24T00:11:19.054Z,6.63
2023-02-24T00:13:48.645Z,6.20
2023-02-24T00:16:19.148Z,8.48
2023-02-24T00:18:45.935Z,7.90
2023-02-24T00:21:15.095Z,8.35
2023-02-24T00:23:46.477Z,8.27
2023-02-24T00:26:14.010Z,8.30
2023-02-24T00:28:40.853Z,8.95
2023-02-24T00:31:10.822Z,8.60
2023-02-24T00:33:39.430Z,8.85
2023-02-24T00:36:17.056Z,8.63
2023-02-24T00:38:47.040Z,10.13
2023-02-24T00:41:15.707Z,10.80
2023-02-24T00:43:47.021Z,9.32
2023-02-24T00:46:17.940Z,9.90
2023-02-24T00:48:48.053Z,9.85
2023-02-24T00:51:23.333Z,9.73
2023-02-24T00:53:57.007Z,9.80
2023-02-24T00:56:24.629Z,11.45
2023-02-24T00:58:51.245Z,12.20
2023-02-24T01:01:20.132Z,11.32
2023-02-24T01:03:49.268Z,8.25
2023-02-24T01:06:17.819Z,8.82
2023-02-24T01:08:47.511Z,7.65
2023-02-24T01:11:33.613Z,8.07
2023-02-24T01:14:00.438Z,7.38
2023-02-24T01:16:28.633Z,6.80
2023-02-24T01:18:55.265Z,6.82
2023-02-24T01:21:22.223Z,6.35
2023-02-24T01:23:49.983Z,5.65
2023-02-24T01:26:17.589Z,6.80
2023-02-24T01:28:46.545Z,5.57
2023-02-24T01:31:13.397Z,5.82
2023-02-24T01:33:40.096Z,6.00
2023-02-24T01:36:17.161Z,5.30
2023-02-24T01:38:44.012Z,5.45
2023-02-24T01:41:12.732Z,5.18
2023-02-24T01:44:14.767Z,4.80
2023-02-24T01:46:42.701Z,5.10
2023-02-24T01:49:16.036Z,4.50
2023-02-24T01:51:55.030Z,3.90
2023-02-24T01:54:22.914Z,4.10
2023-02-24T01:56:50.002Z,3.35
2023-02-24T01:59:16.622Z,3.10
2023-02-24T02:01:43.395Z,4.25
2023-02-24T02:04:18.711Z,3.25
2023-02-24T02:06:45.756Z,3.15
2023-02-24T02:09:14.985Z,4.38
2023-02-24T02:11:42.764Z,4.68
2023-02-24T02:14:09.898Z,3.10
2023-02-24T02:16:45.777Z,4.72
2023-02-24T02:19:50.156Z,3.58
2023-02-24T02:22:19.712Z,3.92
2023-02-24T02:24:50.872Z,3.80
2023-02-24T02:27:21.181Z,3.28
2023-02-24T02:30:13.925Z,3.08
2023-02-24T02:32:52.355Z,3.22
2023-02-24T02:35:24.738Z,3.20
2023-02-24T02:37:59.020Z,3.47
2023-02-24T02:40:37.158Z,3.83
2023-02-24T02:43:41.966Z,3.05
2023-02-24T02:46:15.871Z,3.22
2023-02-24T02:48:47.580Z,4.65
2023-02-24T02:51:17.549Z,4.93
2023-02-24T02:53:45.762Z,4.32
2023-02-24T02:56:15.697Z,3.42
2023-02-24T02:58:54.616Z,3.80
2023-02-24T03:01:28.391Z,3.72
2023-02-24T03:03:56.872Z,3.60
2023-02-24T03:06:27.953Z,3.40
2023-02-24T03:09:16.148Z,5.90
2023-02-24T03:11:44.308Z,4.03
2023-02-24T03:14:12.231Z,6.43
2023-02-24T03:16:43.060Z,3.35
2023-02-24T03:19:10.546Z,3.35
2023-02-24T03:21:42.569Z,3.88
2023-02-24T03:24:09.378Z,4.50
2023-02-24T03:26:43.820Z,4.00
2023-02-24T03:29:26.833Z,4.47
2023-02-24T03:31:59.576Z,4.35
2023-02-24T03:34:48.870Z,5.15
2023-02-24T03:37:15.593Z,4.40
2023-02-24T03:39:42.319Z,4.35
2023-02-24T03:42:12.576Z,3.55
2023-02-24T03:44:39.343Z,3.70
2023-02-24T03:47:05.995Z,4.20
2023-02-24T03:49:32.675Z,4.25
2023-02-24T03:52:29.189Z,3.55
2023-02-24T03:55:06.899Z,3.50
2023-02-24T03:57:36.442Z,3.70
2023-02-24T04:00:25.740Z,3.42
2023-02-24T04:03:11.657Z,4.97
2023-02-24T04:06:01.773Z,4.47
2023-02-24T04:08:30.195Z,5.15
2023-02-24T04:11:00.502Z,6.50
2023-02-24T04:13:46.660Z,6.20
2023-02-24T04:16:29.710Z,5.55
2023-02-24T04:18:58.427Z,6.10
2023-02-24T04:21:26.944Z,5.18
2023-02-24T04:23:53.571Z,6.13
2023-02-24T04:26:20.274Z,7.80
2023-02-24T04:28:48.719Z,5.53
2023-02-24T04:31:18.467Z,6.13
2023-02-24T04:33:50.426Z,5.65
2023-02-24T04:36:18.208Z,4.75
2023-02-24T04:38:45.999Z,4.15
2023-02-24T04:41:21.212Z,4.80
2023-02-24T04:43:50.806Z,5.70
2023-02-24T04:46:18.640Z,5.85
2023-02-24T04:48:45.539Z,4.95
2023-02-24T04:51:13.233Z,5.47
2023-02-24T04:53:39.928Z,5.95
2023-02-24T04:56:10.061Z,7.35
2023-02-24T04:58:38.282Z,6.78
2023-02-24T05:01:10.741Z,7.50
2023-02-24T05:03:37.987Z,5.78
2023-02-24T05:06:06.388Z,6.70
2023-02-24T05:08:33.422Z,6.97
2023-02-24T05:11:06.863Z,7.68
2023-02-24T05:13:33.843Z,11.55
2023-02-24T05:16:06.385Z,8.73
2023-02-24T05:18:37.233Z,7.95
2023-02-24T05:21:27.601Z,9.07
2023-02-24T05:23:54.744Z,8.43
2023-02-24T05:26:24.232Z,8.30
2023-02-24T05:28:52.371Z,13.82
2023-02-24T05:31:21.772Z,9.60
2023-02-24T05:33:49.739Z,11.10
2023-02-24T05:36:17.680Z,11.48
2023-02-24T05:38:48.360Z,10.82
2023-02-24T05:41:18.675Z,11.45
2023-02-24T05:44:05.049Z,13.52
2023-02-24T05:46:33.243Z,13.85
2023-02-24T05:49:04.516Z,14.50
2023-02-24T05:51:39.060Z,13.13
2023-02-24T05:54:08.038Z,13.55
2023-02-24T05:56:36.006Z,12.57
2023-02-24T05:59:04.497Z,11.30
2023-02-24T06:01:35.736Z,12.93
2023-02-24T06:04:06.790Z,15.98
2023-02-24T06:06:38.477Z,18.63
2023-02-24T06:09:11.018Z,18.83
2023-02-24T06:11:38.685Z,17.95
2023-02-24T06:14:07.199Z,18.92
2023-02-24T06:16:34.822Z,16.85
2023-02-24T06:19:01.489Z,16.05
2023-02-24T06:21:29.978Z,12.75
2023-02-24T06:24:00.728Z,11.93
2023-02-24T06:26:29.917Z,10.48
2023-02-24T06:28:58.084Z,11.82
2023-02-24T06:31:25.177Z,12.35
2023-02-24T06:33:53.325Z,12.73
2023-02-24T06:36:20.708Z,20.70
2023-02-24T06:38:47.415Z,19.35
2023-02-24T06:41:14.082Z,17.17
2023-02-24T06:43:43.341Z,14.75
2023-02-24T06:46:11.747Z,16.98
2023-02-24T06:48:38.626Z,19.05
2023-02-24T06:51:13.754Z,10.68
2023-02-24T06:53:43.338Z,11.55
2023-02-24T06:56:19.667Z,12.10
2023-02-24T06:58:48.061Z,11.77
2023-02-24T07:01:15.803Z,13.90
2023-02-24T07:04:02.639Z,12.73
2023-02-24T07:09:05.549Z,11.70
2023-02-24T07:11:32.604Z,13.65
2023-02-24T07:13:59.327Z,12.55
2023-02-24T07:16:28.708Z,12.23
2023-02-24T07:18:56.838Z,15.40
2023-02-24T07:21:24.588Z,15.05
2023-02-24T07:23:58.784Z,21.98
2023-02-24T07:31:24.336Z,14.55
2023-02-24T07:33:56.775Z,13.85
2023-02-24T07:36:23.549Z,12.95
2023-02-24T07:38:55.256Z,14.48
2023-02-24T07:41:23.009Z,15.27
2023-02-24T07:43:53.316Z,15.63
2023-02-24T07:46:25.033Z,15.35
2023-02-24T07:48:52.485Z,16.33
2023-02-24T07:51:21.282Z,16.50
2023-02-24T07:53:59.038Z,16.92
2023-02-24T07:56:27.110Z,18.35
2023-02-24T07:59:07.906Z,17.85
2023-02-24T08:01:39.093Z,16.25
2023-02-24T08:04:12.630Z,16.52
2023-02-24T08:06:45.472Z,16.55
2023-02-24T08:09:20.524Z,17.05
2023-02-24T08:11:52.224Z,16.63
2023-02-24T08:14:23.845Z,15.35
2023-02-24T08:16:59.515Z,15.82
2023-02-24T08:19:32.931Z,16.10
2023-02-24T08:22:28.714Z,14.48
2023-02-24T08:24:56.636Z,11.45
2023-02-24T08:27:24.544Z,12.27
2023-02-24T08:29:58.577Z,14.10
2023-02-24T08:32:37.092Z,10.48
2023-02-24T08:35:05.864Z,9.80
2023-02-24T08:37:39.836Z,9.55
2023-02-24T08:40:30.837Z,9.35
2023-02-24T08:43:17.412Z,12.52
2023-02-24T08:45:56.653Z,8.05
2023-02-24T08:48:43.437Z,8.82
2023-02-24T08:51:23.022Z,7.00
2023-02-24T08:53:53.259Z,7.10
2023-02-24T08:56:24.797Z,8.35
2023-02-24T08:58:58.786Z,7.15
2023-02-24T09:01:34.886Z,6.47
2023-02-24T09:04:07.510Z,6.65
2023-02-24T09:06:46.084Z,8.68
2023-02-24T09:09:21.434Z,6.75
2023-02-24T09:11:58.570Z,6.68
2023-02-24T09:14:28.459Z,6.80
2023-02-24T09:17:03.826Z,5.95
2023-02-24T09:19:40.641Z,7.55
2023-02-24T09:22:21.201Z,7.22
2023-02-24T09:24:51.184Z,7.25
2023-02-24T09:27:18.000Z,7.63
2023-02-24T09:29:50.546Z,7.60
2023-02-24T09:32:17.398Z,5.90
2023-02-24T09:34:44.511Z,7.78
2023-02-24T09:37:25.082Z,7.53
2023-02-24T09:42:27.153Z,6.15
2023-02-24T09:45:00.434Z,7.05
2023-02-24T09:47:45.722Z,7.07
2023-02-24T09:50:48.259Z,5.00
2023-02-24T09:53:20.032Z,7.78
2023-02-24T09:56:00.571Z,7.07
2023-02-24T10:01:22.777Z,6.95
2023-02-24T10:04:20.316Z,6.50
2023-02-24T10:07:09.119Z,6.80
2023-02-24T10:09:39.479Z,6.78
2023-02-24T10:12:17.206Z,6.32
2023-02-24T10:15:00.063Z,7.32
2023-02-24T10:17:40.262Z,6.95
2023-02-24T10:20:28.662Z,6.22
2023-02-24T10:23:03.541Z,6.43
2023-02-24T10:25:41.450Z,6.22
2023-02-24T10:28:15.070Z,6.45
2023-02-24T10:31:25.658Z,6.50
2023-02-24T10:33:56.441Z,5.20
2023-02-24T10:36:30.691Z,6.95
2023-02-24T10:38:57.455Z,6.55
2023-02-24T10:41:29.386Z,7.65
2023-02-24T10:43:56.740Z,6.32
2023-02-24T10:46:40.084Z,6.28
2023-02-24T10:49:10.089Z,6.90
2023-02-24T10:51:44.798Z,6.97
2023-02-24T10:54:54.897Z,6.80
2023-02-24T10:57:38.294Z,7.40
2023-02-24T11:00:18.494Z,7.15
2023-02-24T11:03:31.389Z,7.20
2023-02-24T11:06:04.953Z,7.78
2023-02-24T11:08:48.184Z,7.43
2023-02-24T11:11:54.080Z,7.25
2023-02-24T11:14:39.258Z,7.05
2023-02-24T11:17:16.353Z,8.70
2023-02-24T11:20:47.362Z,6.57
2023-02-24T11:23:18.191Z,5.10
2023-02-24T11:25:58.366Z,6.05
2023-02-24T11:28:49.608Z,5.75
2023-02-24T11:31:41.415Z,5.50
2023-02-24T11:34:19.073Z,4.88
2023-02-24T11:36:57.257Z,4.00
2023-02-24T11:39:59.219Z,3.85
2023-02-24T11:42:37.052Z,4.72
2023-02-24T11:45:24.844Z,4.82
2023-02-24T11:48:20.386Z,5.22
2023-02-24T11:50:58.702Z,6.05
2023-02-24T11:53:27.082Z,5.53
2023-02-24T11:58:54.704Z,5.68
2023-02-24T12:01:44.421Z,6.13
2023-02-24T12:04:34.638Z,5.38
2023-02-24T12:07:17.919Z,5.63
2023-02-24T12:09:50.418Z,5.75
2023-02-24T12:12:23.592Z,6.78
2023-02-24T12:15:21.369Z,5.90
2023-02-24T12:18:20.065Z,6.30
2023-02-24T12:21:05.862Z,5.68
2023-02-24T12:23:43.856Z,4.07
2023-02-24T12:26:26.189Z,5.68
2023-02-24T12:29:03.165Z,5.38
2023-02-24T12:31:53.534Z,6.45
2023-02-24T12:34:46.181Z,6.25
2023-02-24T12:37:40.196Z,6.90
2023-02-24T12:40:24.979Z,6.03
2023-02-24T12:43:23.078Z,5.88
2023-02-24T12:46:19.131Z,6.03
2023-02-24T12:48:59.398Z,6.68
2023-02-24T12:52:09.460Z,5.78
2023-02-24T12:55:01.094Z,6.35
2023-02-24T12:57:53.860Z,7.45
2023-02-24T13:03:27.668Z,6.47
2023-02-24T13:06:09.851Z,4.88
2023-02-24T13:08:48.514Z,5.90
2023-02-24T13:11:37.552Z,5.90
2023-02-24T13:14:31.740Z,9.63
2023-02-24T13:17:05.163Z,6.28
2023-02-24T13:19:32.067Z,5.03
2023-02-24T13:22:18.005Z,5.70
2023-02-24T13:25:07.824Z,4.25
2023-02-24T13:27:35.916Z,5.40
2023-02-24T13:30:26.283Z,3.92
2023-02-24T13:33:00.932Z,4.40
2023-02-24T13:35:27.471Z,3.85
2023-02-24T13:37:54.143Z,4.82
2023-02-24T13:40:23.975Z,6.18
2023-02-24T13:43:29.449Z,6.95
2023-02-24T13:45:58.462Z,6.45
2023-02-24T13:48:45.604Z,6.80
2023-02-24T13:51:52.530Z,6.93
2023-02-24T13:54:28.512Z,6.07
2023-02-24T13:57:22.574Z,7.20
2023-02-24T13:59:52.548Z,6.00
2023-02-24T14:02:23.160Z,6.47
2023-02-24T14:04:57.039Z,6.13
2023-02-24T14:07:32.576Z,5.45
2023-02-24T14:10:05.329Z,5.93
2023-02-24T14:12:34.317Z,6.45
2023-02-24T14:15:02.329Z,5.10
2023-02-24T14:17:34.242Z,6.93
2023-02-24T14:20:09.822Z,6.10
2023-02-24T14:22:58.817Z,6.18
2023-02-24T14:25:27.727Z,7.55
2023-02-24T14:27:55.672Z,6.90
2023-02-24T14:30:31.512Z,5.45
2023-02-24T14:32:58.385Z,5.97
2023-02-24T14:35:35.220Z,6.28
2023-02-24T14:38:02.416Z,6.07
2023-02-24T14:40:29.269Z,6.68
2023-02-24T14:42:57.233Z,7.43
2023-02-24T14:45:26.396Z,7.22
2023-02-24T14:47:54.182Z,7.75
2023-02-24T14:50:26.350Z,6.90
2023-02-24T14:53:05.031Z,6.10
2023-02-24T14:55:34.366Z,7.10
2023-02-24T14:58:06.381Z,5.20
2023-02-24T15:00:36.590Z,7.30
2023-02-24T15:03:21.114Z,6.65
2023-02-24T15:05:51.282Z,7.35
2023-02-24T15:09:00.355Z,8.07
2023-02-24T15:11:29.547Z,7.97
2023-02-24T15:14:00.968Z,8.35
2023-02-24T15:16:47.268Z,6.13
2023-02-24T15:19:29.964Z,8.13
2023-02-24T15:21:56.763Z,9.52
2023-02-24T15:24:31.592Z,8.43
2023-02-24T15:27:18.476Z,7.35
2023-02-24T15:29:45.320Z,7.72
2023-02-24T15:32:19.600Z,8.95
2023-02-24T15:34:48.011Z,13.05
2023-02-24T15:37:16.257Z,9.80
2023-02-24T15:39:43.528Z,5.30
2023-02-24T15:42:16.382Z,7.82
2023-02-24T15:44:56.561Z,14.32
2023-02-24T15:47:25.042Z,13.40
2023-02-24T15:49:52.686Z,9.30
2023-02-24T15:52:22.759Z,11.05
2023-02-24T15:54:49.487Z,10.73
2023-02-24T15:57:16.945Z,14.38
2023-02-24T15:59:44.198Z,11.18
2023-02-24T16:02:19.898Z,10.73
2023-02-24T16:04:47.417Z,13.18
2023-02-24T16:07:33.786Z,12.20
2023-02-24T16:10:00.589Z,17.52
2023-02-24T16:12:33.036Z,16.08
2023-02-24T16:15:03.376Z,34.88
2023-02-24T16:17:40.984Z,32.80
2023-02-24T16:20:15.855Z,16.17
2023-02-24T16:22:42.555Z,37.45
2023-02-24T16:25:10.461Z,32.03
2023-02-24T16:27:37.139Z,42.45
2023-02-24T16:30:04.210Z,31.38
2023-02-24T16:32:31.001Z,17.40
2023-02-24T16:34:57.870Z,80.90
2023-02-24T16:37:29.224Z,128.60
2023-02-24T16:39:55.996Z,27.83
2023-02-24T16:42:30.815Z,37.88
2023-02-24T16:47:24.004Z,17.25
2023-02-24T16:49:50.797Z,16.67
2023-02-24T16:52:20.179Z,15.80
2023-02-24T16:54:48.306Z,13.00
2023-02-24T16:57:15.367Z,12.63
2023-02-24T16:59:42.014Z,12.27
2023-02-24T17:02:17.080Z,17.98
2023-02-24T17:04:43.764Z,17.33
2023-02-24T17:07:10.743Z,20.88
2023-02-24T17:09:37.429Z,17.77
2023-02-24T17:12:04.407Z,12.18
2023-02-24T17:14:31.221Z,12.50
2023-02-24T17:16:59.525Z,14.15
2023-02-24T17:19:26.371Z,10.75
2023-02-24T17:21:53.009Z,13.25
2023-02-24T17:24:19.910Z,15.27
2023-02-24T17:26:46.586Z,10.40
2023-02-24T17:29:13.839Z,9.13
2023-02-24T17:31:41.124Z,26.02
2023-02-24T17:34:08.013Z,12.57
2023-02-24T17:36:34.676Z,9.15
2023-02-24T17:39:01.487Z,10.55
2023-02-24T17:41:28.158Z,14.38
2023-02-24T17:43:54.984Z,17.80
2023-02-24T17:46:22.290Z,11.23
2023-02-24T17:48:49.160Z,11.00
2023-02-24T17:51:16.853Z,9.93
2023-02-24T17:53:43.624Z,8.38
2023-02-24T17:56:10.727Z,9.27
2023-02-24T17:58:37.453Z,12.38
2023-02-24T18:01:05.688Z,12.20
2023-02-24T18:03:33.269Z,43.60
2023-02-24T18:06:10.663Z,41.97
2023-02-24T18:08:37.764Z,10.38
2023-02-24T18:11:04.818Z,29.27
2023-02-24T18:13:31.653Z,16.50
2023-02-24T18:15:58.588Z,17.35
2023-02-24T18:18:26.004Z,9.88
2023-02-24T18:20:52.728Z,10.27
2023-02-24T18:23:19.887Z,15.52
2023-02-24T18:25:46.597Z,12.20
2023-02-24T18:28:13.314Z,26.38
2023-02-24T18:30:40.109Z,20.02
2023-02-24T18:33:07.024Z,17.92
2023-02-24T18:35:34.350Z,15.77
2023-02-24T18:38:01.034Z,19.35
2023-02-24T18:40:28.121Z,17.83
2023-02-24T18:42:54.985Z,16.45
2023-02-24T18:45:21.908Z,14.70
2023-02-24T18:47:50.786Z,10.35
2023-02-24T18:52:44.437Z,10.43
2023-02-24T18:55:11.103Z,10.38
2023-02-24T18:57:37.859Z,10.77
2023-02-24T19:00:05.092Z,21.95
2023-02-24T19:02:31.852Z,9.13
2023-02-24T19:04:58.511Z,11.50
2023-02-24T19:07:25.241Z,13.00
2023-02-24T19:09:52.043Z,33.72
2023-02-24T19:12:20.432Z,18.25
2023-02-24T19:14:51.402Z,26.58
2023-02-24T19:17:18.735Z,10.50
2023-02-24T19:19:46.741Z,9.75
2023-02-24T19:22:13.465Z,9.70
2023-02-24T19:24:40.157Z,7.55
2023-02-24T19:27:06.882Z,9.40
2023-02-24T19:29:33.542Z,17.35
2023-02-24T19:32:00.366Z,7.93
2023-02-24T19:34:27.200Z,7.30
2023-02-24T19:36:53.862Z,8.23
2023-02-24T19:39:20.507Z,10.23
2023-02-24T19:41:49.532Z,8.05
2023-02-24T19:44:16.510Z,18.05
2023-02-24T19:46:43.373Z,14.93
2023-02-24T19:49:10.082Z,17.65
2023-02-24T19:51:36.827Z,12.43
2023-02-24T19:54:03.688Z,17.90
2023-02-24T19:56:31.241Z,18.83
2023-02-24T19:58:58.602Z,13.80
2023-02-24T20:01:26.521Z,19.33
2023-02-24T20:03:57.692Z,28.48
2023-02-24T20:06:31.358Z,24.58
2023-02-24T20:08:58.376Z,8.13
2023-02-24T20:11:25.006Z,17.38
2023-02-24T20:13:52.547Z,10.75
2023-02-24T20:16:19.803Z,11.48
2023-02-24T20:18:46.742Z,14.23
2023-02-24T20:21:13.726Z,15.10
2023-02-24T20:23:40.817Z,13.82
2023-02-24T20:26:07.854Z,14.48
2023-02-24T20:28:34.563Z,14.30
2023-02-24T20:31:06.901Z,18.50
2023-02-24T20:33:33.559Z,11.18
2023-02-24T20:36:00.218Z,9.13
2023-02-24T20:38:26.950Z,7.70
2023-02-24T20:40:59.925Z,12.10
2023-02-24T20:43:27.109Z,13.75
2023-02-24T20:45:54.258Z,12.73
2023-02-24T20:48:20.969Z,14.90
2023-02-24T20:50:47.604Z,29.13
2023-02-24T20:53:14.340Z,24.52
2023-02-24T20:55:40.926Z,21.70
2023-02-24T20:58:07.587Z,26.77
2023-02-24T21:00:34.398Z,19.10
2023-02-24T21:03:01.166Z,20.80
2023-02-24T21:05:27.908Z,23.80
2023-02-24T21:07:54.578Z,18.42
2023-02-24T21:10:25.892Z,22.52
2023-02-24T21:12:52.707Z,17.55
2023-02-24T21:15:19.890Z,22.05
2023-02-24T21:17:46.550Z,26.85
2023-02-24T21:20:13.377Z,19.02
2023-02-24T21:22:40.546Z,9.25
2023-02-24T21:25:08.131Z,12.50
2023-02-24T21:27:34.784Z,13.45
2023-02-24T21:30:01.511Z,11.15
2023-02-24T21:32:28.260Z,10.93
2023-02-24T21:34:54.987Z,12.15
2023-02-24T21:37:21.645Z,10.80
2023-02-24T21:39:49.208Z,10.85
2023-02-24T21:42:15.903Z,7.65
2023-02-24T21:44:44.568Z,11.00
2023-02-24T21:47:11.460Z,11.35
2023-02-24T21:49:38.148Z,9.43
2023-02-24T21:52:09.548Z,9.43
2023-02-24T21:54:36.202Z,8.88
2023-02-24T21:57:03.398Z,6.80
2023-02-24T21:59:30.059Z,7.10
2023-02-24T22:01:56.841Z,8.68
2023-02-24T22:04:23.516Z,6.72
2023-02-24T22:06:50.292Z,7.15
2023-02-24T22:09:20.223Z,10.23
2023-02-24T22:11:47.666Z,9.57
2023-02-24T22:14:14.857Z,9.32
2023-02-24T22:16:42.015Z,9.63
2023-02-24T22:19:08.688Z,8.05
2023-02-24T22:21:35.443Z,6.43
2023-02-24T22:24:02.522Z,6.03
2023-02-24T22:26:29.706Z,6.53
2023-02-24T22:28:56.548Z,6.30
2023-02-24T22:31:25.930Z,9.00
2023-02-24T22:33:52.721Z,8.60
2023-02-24T22:36:26.625Z,9.60
2023-02-24T22:38:54.538Z,11.48
2023-02-24T22:41:23.155Z,7.72
2023-02-24T22:43:49.775Z,10.73
2023-02-24T22:46:18.216Z,10.20
2023-02-24T22:48:45.020Z,8.88
2023-02-24T22:51:12.328Z,14.70
2023-02-24T22:53:40.310Z,10.07
2023-02-24T22:56:07.455Z,14.18
2023-02-24T22:58:34.201Z,14.07
2023-02-24T23:01:00.900Z,10.80
2023-02-24T23:03:30.719Z,10.13
2023-02-24T23:05:59.349Z,12.88
2023-02-24T23:08:27.295Z,13.25
2023-02-24T23:10:53.988Z,15.35
2023-02-24T23:13:21.029Z,13.95
2023-02-24T23:15:50.778Z,12.60
2023-02-24T23:18:17.437Z,14.90
2023-02-24T23:20:45.037Z,15.60
2023-02-24T23:23:11.845Z,10.30
2023-02-24T23:25:38.868Z,9.82
2023-02-24T23:28:06.477Z,11.98
2023-02-24T23:30:33.215Z,11.60
2023-02-24T23:33:00.900Z,8.68
2023-02-24T23:35:27.525Z,8.73
2023-02-24T23:37:54.143Z,10.27
2023-02-24T23:40:26.099Z,8.88
2023-02-24T23:42:53.308Z,8.10
2023-02-24T23:45:20.137Z,8.23
2023-02-24T23:47:46.877Z,6.18
2023-02-24T23:50:13.652Z,6.25
2023-02-24T23:52:40.306Z,8.55
2023-02-24T23:55:07.281Z,7.38
2023-02-24T23:57:34.396Z,7.20
